Map

Track Data

SID SEASON NUMBER BASIN SUBBASIN NAME ISO_TIME NATURE LAT LON WMO_WIND WMO_PRES WMO_AGENCY TRACK_TYPE DIST2LAND LANDFALL IFLAG USA_AGENCY USA_ATCF_ID USA_LAT USA_LON USA_RECORD USA_STATUS USA_WIND USA_PRES USA_SSHS USA_R34_NE USA_R34_SE USA_R34_SW USA_R34_NW USA_R50_NE USA_R50_SE USA_R50_SW USA_R50_NW USA_R64_NE USA_R64_SE USA_R64_SW USA_R64_NW USA_POCI USA_ROCI USA_RMW USA_EYE TOKYO_LAT TOKYO_LON TOKYO_GRADE TOKYO_WIND TOKYO_PRES TOKYO_R50_DIR TOKYO_R50_LONG TOKYO_R50_SHORT TOKYO_R30_DIR TOKYO_R30_LONG TOKYO_R30_SHORT TOKYO_LAND CMA_LAT CMA_LON CMA_CAT CMA_WIND CMA_PRES HKO_LAT HKO_LON HKO_CAT HKO_WIND HKO_PRES NEWDELHI_LAT NEWDELHI_LON NEWDELHI_GRADE NEWDELHI_WIND NEWDELHI_PRES NEWDELHI_CI NEWDELHI_DP NEWDELHI_POCI REUNION_LAT REUNION_LON REUNION_TYPE REUNION_WIND REUNION_PRES REUNION_TNUM REUNION_CI REUNION_RMW REUNION_R34_NE REUNION_R34_SE REUNION_R34_SW REUNION_R34_NW REUNION_R50_NE REUNION_R50_SE REUNION_R50_SW REUNION_R50_NW REUNION_R64_NE REUNION_R64_SE REUNION_R64_SW REUNION_R64_NW BOM_LAT BOM_LON BOM_TYPE BOM_WIND BOM_PRES BOM_TNUM BOM_CI BOM_RMW BOM_R34_NE BOM_R34_SE BOM_R34_SW BOM_R34_NW BOM_R50_NE BOM_R50_SE BOM_R50_SW BOM_R50_NW BOM_R64_NE BOM_R64_SE BOM_R64_SW BOM_R64_NW BOM_ROCI BOM_POCI BOM_EYE BOM_POS_METHOD BOM_PRES_METHOD NADI_LAT NADI_LON NADI_CAT NADI_WIND NADI_PRES WELLINGTON_LAT WELLINGTON_LON WELLINGTON_WIND WELLINGTON_PRES DS824_LAT DS824_LON DS824_STAGE DS824_WIND DS824_PRES TD9636_LAT TD9636_LON TD9636_STAGE TD9636_WIND TD9636_PRES TD9635_LAT TD9635_LON TD9635_WIND TD9635_PRES TD9635_ROCI NEUMANN_LAT NEUMANN_LON NEUMANN_CLASS NEUMANN_WIND NEUMANN_PRES MLC_LAT MLC_LON MLC_CLASS MLC_WIND MLC_PRES USA_GUST BOM_GUST BOM_GUST_PER REUNION_GUST REUNION_GUST_PER USA_SEAHGT USA_SEARAD_NE USA_SEARAD_SE USA_SEARAD_SW USA_SEARAD_NW STORM_SPEED STORM_DIR
1950222N22161 1950 55 WP MM NOT_NAMED 1950-08-10 00:00:00 TS 22.0000 160.700 main 2450 2427 __O___________ -1 22.0000 160.700 0 1006 6 277
1950222N22161 1950 55 WP MM NOT_NAMED 1950-08-10 03:00:00 TS 22.0401 160.352 main 2427 2390 __P___________ -1 22.0401 160.352 0 1006 7 279
1950222N22161 1950 55 WP MM NOT_NAMED 1950-08-10 06:00:00 TS 22.1000 160.000 main 2390 2360 __O___________ -1 22.1000 160.000 0 1006 7 283
1950222N22161 1950 55 WP MM NOT_NAMED 1950-08-10 09:00:00 TS 22.1925 159.643 main 2352 2322 __P___________ -1 22.1925 159.643 0 1006 7 287
1950222N22161 1950 55 WP MM NOT_NAMED 1950-08-10 12:00:00 TS 22.3000 159.300 main 2322 2293 __O___________ -1 22.3000 159.300 0 1006 6 288
1950222N22161 1950 55 WP MM NOT_NAMED 1950-08-10 15:00:00 TS 22.3849 159.000 main 2293 2263 __P___________ -1 22.3849 159.000 0 1006 6 290
1950222N22161 1950 55 WP MM NOT_NAMED 1950-08-10 18:00:00 TS 22.5000 158.700 main 2263 2225 __O___________ -1 22.5000 158.700 0 1006 7 296
1950222N22161 1950 55 WP MM NOT_NAMED 1950-08-10 21:00:00 TS 22.6699 158.365 main 2225 2180 __P___________ -1 22.6699 158.365 0 1006 8 302
1950222N22161 1950 55 WP MM NOT_NAMED 1950-08-11 00:00:00 TS 22.9000 158.000 main 2180 2128 __O___________ -1 22.9000 158.000 0 1006 9 306
1950222N22161 1950 55 WP MM NOT_NAMED 1950-08-11 03:00:00 TS 23.1774 157.615 main 2128 2075 __P___________ -1 23.1774 157.615 0 1003 10 309
1950222N22161 1950 55 WP MM NOT_NAMED 1950-08-11 06:00:00 TS 23.5000 157.200 main 2075 2023 __O___________ -1 23.5000 157.200 1 29 1000 10 309
1950222N22161 1950 55 WP MM NOT_NAMED 1950-08-11 09:00:00 TS 23.8351 156.735 main 2015 1955 __P___________ -1 23.8351 156.735 1 29 998 11 310
1950222N22161 1950 55 WP MM NOT_NAMED 1950-08-11 12:00:00 TS 24.2000 156.300 main 1955 1902 __O___________ -1 24.2000 156.300 1 29 996 10 318
1950222N22161 1950 55 WP MM NOT_NAMED 1950-08-11 15:00:00 TS 24.5847 155.985 main 1902 1849 __P___________ -1 24.5847 155.985 1 33 994 10 326
1950222N22161 1950 55 WP MM NOT_NAMED 1950-08-11 18:00:00 TS 25.0000 155.700 main 1849 1797 __O___________ -1 25.0000 155.700 2 38 992 10 325
1950222N22161 1950 55 WP MM NOT_NAMED 1950-08-11 21:00:00 TS 25.4126 155.335 main 1789 1729 __P___________ -1 25.4126 155.335 2 43 990 11 325
1950222N22161 1950 55 WP MM NOT_NAMED 1950-08-12 00:00:00 TS 25.9000 155.000 main 1729 1677 __O___________ -1 25.9000 155.000 3 48 988 12 334
1950222N22161 1950 55 WP MM NOT_NAMED 1950-08-12 03:00:00 TS 26.4825 154.748 main 1662 1604 __P___________ -1 26.4825 154.748 3 48 988 14 345
1950222N22161 1950 55 WP MM NOT_NAMED 1950-08-12 06:00:00 TS 27.2000 154.600 main 1604 1540 __O___________ -1 27.2000 154.600 3 48 988 16 353
1950222N22161 1950 55 WP MM NOT_NAMED 1950-08-12 09:00:00 TS 28.0549 154.540 main 1534 1490 __P___________ -1 28.0549 154.540 3 48 988 18 1
1950222N22161 1950 55 WP MM NOT_NAMED 1950-08-12 12:00:00 TS 29.0000 154.600 main 1483 1438 __O___________ -1 29.0000 154.600 3 48 988 20 5
1950222N22161 1950 55 WP MM NOT_NAMED 1950-08-12 15:00:00 TS 30.0023 154.740 main 1433 1407 __P___________ -1 30.0023 154.740 3 48 988 19 10
1950222N22161 1950 55 WP MM NOT_NAMED 1950-08-12 18:00:00 TS 30.9000 155.000 main 1411 1405 __O___________ -1 30.9000 155.000 3 48 988 16 19
1950222N22161 1950 55 WP MM NOT_NAMED 1950-08-12 21:00:00 TS 31.5325 155.363 main 1418 1413 __P___________ -1 31.5325 155.363 3 53 984 13 32
1950222N22161 1950 55 WP MM NOT_NAMED 1950-08-13 00:00:00 TS 32.0000 155.800 main 1432 1428 __O___________ -1 32.0000 155.800 3 58 980 12 40
1950222N22161 1950 55 WP MM NOT_NAMED 1950-08-13 03:00:00 TS 32.4298 156.236 main 1452 1452 __P___________ -1 32.4298 156.236 3 53 982 11 44
1950222N22161 1950 55 WP MM NOT_NAMED 1950-08-13 06:00:00 TS 32.8000 156.700 main 1483 1483 __O___________ -1 32.8000 156.700 3 48 985 11 47
1950222N22161 1950 55 WP MM NOT_NAMED 1950-08-13 09:00:00 TS 33.1648 157.185 main 1506 1504 __P___________ -1 33.1648 157.185 3 48 987 11 50
1950222N22161 1950 55 WP MM NOT_NAMED 1950-08-13 12:00:00 TS 33.5000 157.700 main 1508 1498 __O___________ -1 33.5000 157.700 3 48 990 11 54
1950222N22161 1950 55 WP MM NOT_NAMED 1950-08-13 15:00:00 TS 33.7999 158.243 main 1498 1489 __P___________ -1 33.7999 158.243 3 43 990 11 57
1950222N22161 1950 55 WP MM NOT_NAMED 1950-08-13 18:00:00 TS 34.1000 158.800 main 1493 1482 __O___________ -1 34.1000 158.800 2 38 990 11 55
1950222N22161 1950 55 WP MM NOT_NAMED 1950-08-13 21:00:00 TS 34.4270 159.336 main 1486 1472 __P___________ -1 34.4270 159.336 2 38 990 11 52
1950222N22161 1950 55 WP MM NOT_NAMED 1950-08-14 00:00:00 TS 34.8000 159.900 main 1477 1465 __O___________ -1 34.8000 159.900 2 38 990 12 50
1950222N22161 1950 55 WP MM NOT_NAMED 1950-08-14 03:00:00 TS 35.2267 160.499 main 1470 1458 __P___________ -1 35.2267 160.499 2 38 990 14 50
1950222N22161 1950 55 WP MM NOT_NAMED 1950-08-14 06:00:00 TS 35.7000 161.200 main 1462 1458 __O___________ -1 35.7000 161.200 2 38 990 16 53
1950222N22161 1950 55 WP MM NOT_NAMED 1950-08-14 09:00:00 TS 36.1849 162.056 main 1466 1463 __P___________ -1 36.1849 162.056 2 38 989 18 55
1950222N22161 1950 55 WP MM NOT_NAMED 1950-08-14 12:00:00 TS 36.7000 163.000 main 1475 1472 __O___________ -1 36.7000 163.000 2 38 989 18 55
1950222N22161 1950 55 WP MM NOT_NAMED 1950-08-14 15:00:00 TS 37.2341 163.929 main 1489 1485 __P___________ -1 37.2341 163.929 2 38 988 19 54
1950222N22161 1950 55 WP MM NOT_NAMED 1950-08-14 18:00:00 ET 37.8000 164.900 main 1506 1505 __O___________ -1 37.8000 164.900 9 38 987 19 54
1950222N22161 1950 55 WP MM NOT_NAMED 1950-08-14 21:00:00 ET 38.3687 165.908 main 1528 1513 __P___________ -1 38.3687 165.908 9 986 20 54
1950222N22161 1950 55 WP MM NOT_NAMED 1950-08-15 00:00:00 ET 39.0000 167.000 main 1518 1508 __O___________ -1 39.0000 167.000 9 986 22 53
1950222N22161 1950 55 WP MM NOT_NAMED 1950-08-15 03:00:00 ET 39.6879 168.173 main 1509 1500 __P___________ -1 39.6879 168.173 9 986 24 52
1950222N22161 1950 55 WP MM NOT_NAMED 1950-08-15 06:00:00 ET 40.5000 169.500 main 1506 1499 __O___________ -1 40.5000 169.500 9 987 28 51
1950222N22161 1950 55 WP MM NOT_NAMED 1950-08-15 09:00:00 ET 41.4382 171.007 main 1505 1494 __P___________ -1 41.4382 171.007 9 987 31 50
1950222N22161 1950 55 WP MM NOT_NAMED 1950-08-15 12:00:00 ET 42.5000 172.700 main 1499 1485 __O___________ -1 42.5000 172.700 9 987 34 50
1950222N22161 1950 55 WP MM NOT_NAMED 1950-08-15 15:00:00 ET 43.6355 174.585 main 1494 1401 __P___________ -1 43.6355 174.585 9 988 36 50
1950222N22161 1950 55 WP MM NOT_NAMED 1950-08-15 18:00:00 ET 44.8000 176.500 main 1387 1207 __O___________ -1 44.8000 176.500 9 990 35 49
1950222N22161 1950 55 WP MM NOT_NAMED 1950-08-15 21:00:00 ET 45.9197 178.246 main 1207 1042 __P___________ -1 45.9197 178.246 9 990 32 47
1950222N22161 1950 55 WP MM NOT_NAMED 1950-08-16 00:00:00 ET 47.0000 179.900 main 1029 __O___________ -1 47.0000 179.900 9 990 31 46

Digital Typhoon Data and Search

About IBTrACS Database

This database is a web-friendly format of International Best Track Archive for Climate Stewardship (IBTrACS), a global best track data archive curated by NOAA dating back to 1842.

Updated: 2021-10-19